Time;durP1;ratioP1;P1;durP2;ratioP2;P2;SDS_P1;SDS_P2;PMS_P1;PMS_P2;Temp;Humidity;BMP_temperature;BMP_pressure;BME280_temperature;BME280_humidity;BME280_pressure;Samples;Min_cycle;Max_cycle;Signal;HPM_P1;HPM_P2
2022/04/09 00:01:34;;;;;;;6.37;0.80;;;5.70;99.90;;;;;;4954946;29;20224;-67
2022/04/09 00:04:01;;;;;;;0.83;0.50;;;5.80;99.90;;;;;;4954610;28;20223;-70
2022/04/09 00:06:27;;;;;;;2.33;0.70;;;5.80;99.90;;;;;;4954723;29;20297;-71
2022/04/09 00:08:56;;;;;;;3.70;0.90;;;5.90;99.90;;;;;;4955648;29;20214;-70
2022/04/09 00:11:22;;;;;;;2.47;0.97;;;6.00;99.90;;;;;;4955120;29;20680;-70
2022/04/09 00:13:49;;;;;;;2.67;0.70;;;6.10;99.90;;;;;;4955053;29;20215;-67
2022/04/09 00:16:16;;;;;;;1.43;0.80;;;6.10;99.90;;;;;;4955259;29;20235;-70
2022/04/09 00:18:43;;;;;;;3.30;1.00;;;6.10;99.90;;;;;;4955557;29;20212;-70
2022/04/09 00:21:10;;;;;;;3.07;1.03;;;6.20;99.90;;;;;;4954506;29;20228;-71
2022/04/09 00:23:37;;;;;;;2.63;1.03;;;6.10;99.90;;;;;;4955431;28;20203;-70
2022/04/09 00:26:05;;;;;;;3.07;0.93;;;6.10;99.90;;;;;;4955069;29;20592;-70
2022/04/09 00:28:32;;;;;;;2.77;0.73;;;6.00;99.90;;;;;;4954885;29;20208;-69
2022/04/09 00:30:59;;;;;;;1.97;1.03;;;5.80;99.90;;;;;;4953202;29;20585;-70
2022/04/09 00:33:26;;;;;;;3.80;1.57;;;5.70;99.90;;;;;;4954633;29;20208;-70
2022/04/09 00:35:52;;;;;;;4.07;1.30;;;5.50;99.90;;;;;;4954481;29;20267;-71
2022/04/09 00:38:19;;;;;;;4.00;1.00;;;5.50;99.90;;;;;;4954959;29;20208;-70
2022/04/09 00:40:46;;;;;;;5.20;1.33;;;5.30;99.90;;;;;;4955202;29;20224;-70
2022/04/09 00:43:14;;;;;;;5.20;1.23;;;5.30;99.90;;;;;;4954699;29;20214;-71
2022/04/09 00:45:41;;;;;;;2.60;1.40;;;5.30;99.90;;;;;;4954834;29;20215;-70
2022/04/09 00:48:10;;;;;;;3.83;1.27;;;5.30;99.90;;;;;;4953743;29;20212;-70
2022/04/09 00:50:37;;;;;;;3.70;1.17;;;5.20;99.90;;;;;;4954256;28;20266;-70
2022/04/09 00:53:07;;;;;;;6.83;1.10;;;5.10;99.90;;;;;;4954635;29;20573;-67
2022/04/09 00:58:21;;;;;;;2.07;1.03;;;5.10;99.90;;;;;;4954731;29;20218;-70
2022/04/09 01:00:48;;;;;;;7.70;1.10;;;5.10;99.90;;;;;;4954280;29;20243;-69
2022/04/09 01:03:19;;;;;;;4.27;0.87;;;5.10;99.90;;;;;;4954706;28;20216;-66
2022/04/09 01:05:48;;;;;;;3.17;1.23;;;5.10;99.90;;;;;;4954613;28;20300;-70
2022/04/09 01:08:15;;;;;;;7.57;1.00;;;5.20;99.90;;;;;;4953926;28;20577;-71
2022/04/09 01:10:45;;;;;;;3.23;0.80;;;5.10;99.90;;;;;;4954286;29;20212;-71
2022/04/09 01:13:12;;;;;;;3.70;0.83;;;5.10;99.90;;;;;;4954226;29;20204;-71
2022/04/09 01:15:40;;;;;;;1.60;0.70;;;5.20;99.90;;;;;;4954443;29;20236;-70
2022/04/09 01:18:07;;;;;;;5.60;0.90;;;5.20;99.90;;;;;;4954527;29;20804;-70
2022/04/09 01:20:34;;;;;;;4.20;1.10;;;5.10;99.90;;;;;;4954252;29;20216;-69
2022/04/09 01:23:02;;;;;;;6.80;1.13;;;5.20;99.90;;;;;;4954275;29;20204;-70
2022/04/09 01:25:29;;;;;;;2.53;0.67;;;5.10;99.90;;;;;;4953643;29;20212;-67
2022/04/09 01:27:56;;;;;;;9.57;0.93;;;5.10;99.90;;;;;;4954230;29;20203;-67
2022/04/09 01:30:23;;;;;;;4.93;0.93;;;5.00;99.90;;;;;;4954384;29;20210;-70
2022/04/09 01:32:50;;;;;;;6.57;1.20;;;5.00;99.90;;;;;;4954360;29;20215;-71
2022/04/09 01:35:17;;;;;;;5.90;1.00;;;5.10;99.90;;;;;;4954739;28;20238;-68
2022/04/09 01:37:44;;;;;;;1.57;0.83;;;5.10;99.90;;;;;;4958373;29;20303;-70
2022/04/09 01:40:12;;;;;;;7.33;1.10;;;5.10;99.90;;;;;;4957855;28;20540;-71
2022/04/09 01:42:39;;;;;;;4.17;1.00;;;5.10;99.90;;;;;;4957597;29;20239;-70
2022/04/09 01:45:07;;;;;;;4.07;1.00;;;5.10;99.90;;;;;;4957635;29;20665;-70
2022/04/09 01:47:35;;;;;;;3.47;0.93;;;5.10;99.90;;;;;;4958524;28;20234;-71
2022/04/09 01:50:03;;;;;;;1.37;0.77;;;5.10;99.90;;;;;;4957721;29;20203;-71
2022/04/09 01:52:30;;;;;;;4.53;0.90;;;5.10;99.90;;;;;;4957631;29;20228;-70
2022/04/09 01:54:57;;;;;;;1.80;0.80;;;5.10;99.90;;;;;;4957443;29;20683;-71
2022/04/09 01:57:25;;;;;;;5.90;1.03;;;5.00;99.90;;;;;;4956479;29;20739;-66
2022/04/09 01:59:52;;;;;;;13.00;1.17;;;5.00;99.90;;;;;;4957155;28;20225;-70
2022/04/09 02:02:18;;;;;;;5.07;0.80;;;5.10;99.90;;;;;;4957389;29;20670;-70
2022/04/09 02:04:45;;;;;;;6.00;0.97;;;5.00;99.90;;;;;;4957798;28;20212;-70
2022/04/09 02:07:13;;;;;;;5.10;0.80;;;4.90;99.90;;;;;;4956860;28;20234;-71
2022/04/09 02:09:40;;;;;;;3.80;0.93;;;4.90;99.90;;;;;;4957461;28;20573;-71
2022/04/09 02:12:07;;;;;;;4.07;0.70;;;5.00;99.90;;;;;;4957700;29;20234;-70
2022/04/09 02:14:36;;;;;;;4.70;0.70;;;4.90;99.90;;;;;;4957420;29;20291;-66
2022/04/09 02:17:03;;;;;;;6.60;1.00;;;4.80;99.90;;;;;;4957168;29;20236;-70
2022/04/09 02:19:30;;;;;;;4.97;1.10;;;4.80;99.90;;;;;;4957316;29;20212;-69
2022/04/09 02:21:57;;;;;;;2.50;1.00;;;4.90;99.90;;;;;;4956808;29;20228;-70
2022/04/09 02:24:23;;;;;;;9.40;1.60;;;4.90;99.90;;;;;;4957030;29;20212;-71
2022/04/09 02:26:50;;;;;;;3.17;0.80;;;4.90;99.90;;;;;;4957129;29;20208;-70
2022/04/09 02:29:17;;;;;;;4.37;1.00;;;4.90;99.90;;;;;;4956921;29;20691;-66
2022/04/09 02:31:45;;;;;;;6.10;1.23;;;4.90;99.90;;;;;;4957531;29;20246;-70
2022/04/09 02:34:12;;;;;;;2.00;0.80;;;4.80;99.90;;;;;;4957431;28;20205;-70
2022/04/09 02:36:39;;;;;;;2.90;0.70;;;4.80;99.90;;;;;;4956643;29;20232;-70
2022/04/09 02:39:06;;;;;;;2.23;1.00;;;4.80;99.90;;;;;;4957349;29;20222;-67
2022/04/09 02:41:33;;;;;;;8.83;1.20;;;4.70;99.90;;;;;;4957521;29;20602;-70
2022/04/09 02:44:00;;;;;;;6.83;1.87;;;4.70;99.90;;;;;;4957403;29;20222;-67
2022/04/09 02:46:27;;;;;;;7.53;0.97;;;4.70;99.90;;;;;;4956231;28;20323;-70
2022/04/09 02:48:55;;;;;;;9.10;1.07;;;4.70;99.90;;;;;;4956159;29;20212;-67
2022/04/09 02:51:22;;;;;;;6.10;0.90;;;4.70;99.90;;;;;;4956569;28;20228;-71
2022/04/09 02:53:48;;;;;;;1.80;0.73;;;4.70;99.90;;;;;;4957126;29;20214;-70
2022/04/09 02:56:15;;;;;;;1.73;0.60;;;4.60;99.90;;;;;;4956325;28;20716;-69
2022/04/09 02:58:42;;;;;;;5.30;1.20;;;4.70;99.90;;;;;;4956456;29;20584;-71
2022/04/09 03:01:09;;;;;;;6.27;1.10;;;4.60;99.90;;;;;;4956371;29;20311;-70
2022/04/09 03:03:36;;;;;;;3.97;1.17;;;4.60;99.90;;;;;;4956969;28;20208;-71
2022/04/09 03:06:04;;;;;;;5.13;0.73;;;4.70;99.90;;;;;;4956703;28;20208;-67
2022/04/09 03:08:30;;;;;;;5.40;1.20;;;4.70;99.90;;;;;;4956551;28;20219;-70
2022/04/09 03:10:57;;;;;;;5.90;1.00;;;4.60;99.90;;;;;;4956895;28;20235;-70
2022/04/09 03:13:24;;;;;;;6.50;1.20;;;4.60;99.90;;;;;;4955939;28;20657;-69
2022/04/09 03:15:51;;;;;;;7.07;0.93;;;4.50;99.90;;;;;;4956165;29;20228;-69
2022/04/09 03:18:18;;;;;;;4.37;0.83;;;4.50;99.90;;;;;;4956562;29;20303;-70
2022/04/09 03:20:44;;;;;;;4.47;0.80;;;4.50;99.90;;;;;;4956345;29;20219;-66
2022/04/09 03:23:13;;;;;;;8.37;1.20;;;4.40;99.90;;;;;;4956438;29;20208;-67
2022/04/09 03:25:39;;;;;;;6.70;1.00;;;4.50;99.90;;;;;;4956017;29;20215;-67
2022/04/09 03:28:06;;;;;;;4.60;0.90;;;4.50;99.90;;;;;;4956110;29;20216;-68
2022/04/09 03:30:33;;;;;;;6.27;0.80;;;4.40;99.90;;;;;;4955202;29;20208;-69
2022/04/09 03:33:00;;;;;;;5.13;1.10;;;4.30;99.90;;;;;;4956089;29;20208;-67
2022/04/09 03:35:27;;;;;;;3.27;0.87;;;4.30;99.90;;;;;;4956136;29;20208;-66
2022/04/09 03:37:56;;;;;;;10.60;1.23;;;4.30;99.90;;;;;;4956370;29;20247;-67
2022/04/09 03:40:24;;;;;;;2.10;1.10;;;4.20;99.90;;;;;;4956228;28;20294;-71
2022/04/09 03:42:51;;;;;;;7.70;1.63;;;4.20;99.90;;;;;;4955785;29;20582;-70
2022/04/09 03:45:18;;;;;;;7.83;1.13;;;4.00;99.90;;;;;;4955881;29;20232;-67
2022/04/09 03:47:45;;;;;;;3.17;1.20;;;4.00;99.90;;;;;;4956101;29;20215;-67
2022/04/09 03:50:12;;;;;;;5.23;1.07;;;3.90;99.90;;;;;;4955471;29;20208;-67
2022/04/09 03:52:39;;;;;;;1.80;1.00;;;3.90;99.90;;;;;;4955054;29;20585;-70
2022/04/09 03:55:07;;;;;;;6.63;1.20;;;3.90;99.90;;;;;;4954941;29;20270;-70
2022/04/09 03:57:35;;;;;;;4.67;1.10;;;3.90;99.90;;;;;;4955137;28;20232;-69
2022/04/09 04:00:03;;;;;;;6.30;1.13;;;3.80;99.90;;;;;;4955025;28;20212;-66
2022/04/09 04:02:30;;;;;;;3.70;1.27;;;3.80;99.90;;;;;;4955533;28;20247;-71
2022/04/09 04:05:01;;;;;;;7.43;1.77;;;3.80;99.90;;;;;;4955425;28;20212;-71
2022/04/09 04:07:28;;;;;;;8.93;1.50;;;3.80;99.90;;;;;;4955501;28;20724;-70
2022/04/09 04:09:55;;;;;;;6.10;1.20;;;3.70;99.90;;;;;;4955556;28;20216;-69
2022/04/09 04:12:23;;;;;;;5.23;1.50;;;3.70;99.90;;;;;;4954966;28;20236;-71
2022/04/09 04:14:51;;;;;;;4.67;1.10;;;3.70;99.90;;;;;;4955118;29;20275;-70
2022/04/09 04:17:17;;;;;;;8.97;1.73;;;3.70;99.90;;;;;;4955004;29;20247;-70
2022/04/09 04:19:44;;;;;;;8.47;1.10;;;3.60;99.90;;;;;;4954881;29;20212;-71
2022/04/09 04:22:11;;;;;;;6.63;1.57;;;3.60;99.90;;;;;;4953378;29;20775;-71
2022/04/09 04:24:38;;;;;;;6.17;1.13;;;3.70;99.90;;;;;;4936190;29;20209;-69
2022/04/09 04:27:05;;;;;;;2.70;1.17;;;3.70;99.90;;;;;;4935862;29;20209;-68
2022/04/09 04:29:33;;;;;;;3.43;1.40;;;3.70;99.90;;;;;;4936961;29;20213;-67
2022/04/09 04:32:02;;;;;;;5.33;1.30;;;3.70;99.90;;;;;;4954661;29;20605;-66
2022/04/09 04:34:28;;;;;;;6.37;1.37;;;3.70;99.90;;;;;;4955054;29;20212;-67
2022/04/09 04:36:55;;;;;;;5.97;1.27;;;3.70;99.90;;;;;;4954621;29;20247;-70
2022/04/09 04:39:22;;;;;;;12.30;1.50;;;3.60;99.90;;;;;;4954920;29;20210;-67
2022/04/09 04:41:49;;;;;;;5.37;1.60;;;3.70;99.90;;;;;;4954656;29;20638;-70
2022/04/09 04:44:16;;;;;;;2.10;1.00;;;3.60;99.90;;;;;;4955001;29;20299;-71
2022/04/09 04:46:43;;;;;;;7.53;1.87;;;3.60;99.90;;;;;;4954778;29;20238;-71
2022/04/09 04:49:11;;;;;;;5.00;1.50;;;3.70;99.90;;;;;;4946490;29;20230;-70
2022/04/09 04:51:38;;;;;;;6.20;1.60;;;3.80;99.90;;;;;;4953922;28;20641;-70
2022/04/09 04:54:05;;;;;;;7.20;1.77;;;3.80;99.90;;;;;;4954610;28;20204;-66
2022/04/09 04:56:32;;;;;;;6.13;1.20;;;3.80;99.90;;;;;;4954831;28;20235;-70
2022/04/09 04:58:59;;;;;;;9.40;1.37;;;3.80;99.90;;;;;;4954508;28;20216;-70
2022/04/09 05:01:26;;;;;;;5.77;1.20;;;3.80;99.90;;;;;;4948240;28;20225;-66
2022/04/09 05:03:53;;;;;;;7.73;1.50;;;3.90;99.90;;;;;;4935287;29;20215;-68
2022/04/09 05:06:21;;;;;;;7.27;1.30;;;3.90;99.90;;;;;;4953359;28;20204;-71
2022/04/09 05:08:48;;;;;;;10.13;1.43;;;3.80;99.90;;;;;;4953986;29;20669;-69
2022/04/09 05:11:15;;;;;;;2.20;0.93;;;3.80;99.90;;;;;;4953271;28;20231;-67
2022/04/09 05:13:42;;;;;;;5.87;1.70;;;3.80;99.90;;;;;;4952671;29;20216;-71
2022/04/09 05:16:09;;;;;;;2.17;1.13;;;3.90;99.90;;;;;;4953934;28;20208;-70
2022/04/09 05:18:36;;;;;;;6.07;1.30;;;3.90;99.90;;;;;;4954119;29;20669;-67
2022/04/09 05:21:03;;;;;;;3.60;1.50;;;3.90;99.90;;;;;;4954268;29;20232;-69
2022/04/09 05:23:32;;;;;;;2.50;1.30;;;4.00;99.90;;;;;;4954540;29;20204;-70
2022/04/09 05:25:58;;;;;;;4.73;1.30;;;4.00;99.90;;;;;;4954321;29;20208;-71
2022/04/09 05:28:26;;;;;;;1.40;1.07;;;3.90;99.90;;;;;;4953739;29;20212;-71
2022/04/09 05:30:52;;;;;;;6.10;1.57;;;4.00;99.90;;;;;;4953251;29;20234;-70
2022/04/09 05:33:19;;;;;;;4.37;0.97;;;4.00;99.90;;;;;;4954451;29;20208;-70
2022/04/09 05:35:46;;;;;;;8.43;1.57;;;4.00;99.90;;;;;;4953497;29;20669;-70
2022/04/09 05:38:13;;;;;;;8.57;1.70;;;4.00;99.90;;;;;;4954164;29;20236;-71
2022/04/09 05:40:42;;;;;;;2.30;0.93;;;4.00;99.90;;;;;;4954062;29;20214;-70
2022/04/09 05:43:08;;;;;;;6.50;1.93;;;4.30;99.90;;;;;;4950919;29;20236;-70
2022/04/09 05:45:35;;;;;;;6.77;2.67;;;4.40;99.90;;;;;;4953801;28;20218;-71
2022/04/09 05:48:03;;;;;;;9.90;1.63;;;4.40;99.90;;;;;;4952018;29;20204;-71
2022/04/09 05:50:30;;;;;;;3.80;1.07;;;4.50;99.90;;;;;;4954591;28;20231;-71
2022/04/09 05:52:57;;;;;;;7.23;1.50;;;4.60;99.90;;;;;;4954430;29;20688;-67
2022/04/09 05:55:24;;;;;;;8.67;1.33;;;4.70;99.90;;;;;;4954487;29;20219;-70
2022/04/09 05:57:53;;;;;;;8.43;1.17;;;4.70;99.90;;;;;;4954529;29;20259;-68
2022/04/09 06:00:20;;;;;;;6.50;1.40;;;4.90;99.90;;;;;;4954291;28;20216;-69
2022/04/09 06:02:47;;;;;;;12.13;1.60;;;5.20;99.90;;;;;;4954303;29;20220;-68
2022/04/09 06:05:14;;;;;;;3.57;1.20;;;5.50;99.90;;;;;;4953678;28;20208;-69
2022/04/09 06:07:41;;;;;;;6.93;1.47;;;5.70;99.90;;;;;;4954359;29;20208;-69
2022/04/09 06:10:10;;;;;;;6.80;1.53;;;6.00;99.90;;;;;;4954489;29;20204;-68
2022/04/09 06:12:37;;;;;;;4.47;1.30;;;6.00;99.90;;;;;;4953330;28;20262;-67
2022/04/09 06:15:07;;;;;;;4.33;1.47;;;6.20;99.90;;;;;;4952954;28;20668;-69
2022/04/09 06:17:36;;;;;;;7.13;1.33;;;6.50;99.90;;;;;;4953984;29;20231;-67
2022/04/09 06:20:04;;;;;;;6.73;1.13;;;6.70;99.90;;;;;;4953748;29;20208;-71
2022/04/09 06:22:32;;;;;;;9.37;1.50;;;6.80;99.90;;;;;;4956034;28;20283;-71
2022/04/09 06:24:59;;;;;;;4.43;1.30;;;7.20;99.90;;;;;;4954211;29;20209;-70
2022/04/09 06:27:25;;;;;;;2.80;0.90;;;7.90;99.90;;;;;;4954447;28;20216;-70
2022/04/09 06:29:52;;;;;;;4.77;1.10;;;8.70;99.90;;;;;;4956609;28;20211;-70
2022/04/09 06:32:20;;;;;;;2.83;0.93;;;9.50;99.90;;;;;;4956714;29;20236;-71
2022/04/09 06:34:47;;;;;;;7.13;0.80;;;10.20;99.90;;;;;;4956826;29;20665;-70
2022/04/09 06:37:14;;;;;;;4.40;1.00;;;10.60;99.90;;;;;;4957268;29;20246;-71
2022/04/09 06:39:41;;;;;;;6.33;0.97;;;11.00;99.90;;;;;;4957124;29;20662;-71
2022/04/09 06:42:08;;;;;;;8.03;0.83;;;11.70;99.90;;;;;;4956802;29;20228;-71
2022/04/09 06:44:34;;;;;;;2.40;0.83;;;12.00;99.90;;;;;;4957066;29;20250;-71
2022/04/09 06:47:01;;;;;;;5.17;1.13;;;12.00;99.90;;;;;;4956816;29;20208;-71
2022/04/09 06:49:30;;;;;;;3.40;0.90;;;12.00;99.90;;;;;;4954504;29;20201;-70
2022/04/09 06:51:57;;;;;;;3.57;1.00;;;12.50;99.90;;;;;;4938198;29;20228;-71
2022/04/09 06:54:23;;;;;;;3.97;1.27;;;13.00;99.90;;;;;;4936607;29;20237;-68
2022/04/09 06:56:50;;;;;;;4.13;1.30;;;13.60;99.90;;;;;;4937442;29;20208;-68
2022/04/09 06:59:17;;;;;;;5.33;1.00;;;13.70;99.90;;;;;;4937852;29;20212;-72
2022/04/09 07:01:43;;;;;;;3.43;0.80;;;13.50;99.90;;;;;;4937928;29;20235;-68
2022/04/09 07:04:10;;;;;;;6.40;1.20;;;13.90;99.90;;;;;;4938278;29;20209;-69
2022/04/09 07:06:38;;;;;;;4.13;1.27;;;14.00;99.90;;;;;;4937805;29;20209;-71
2022/04/09 07:09:06;;;;;;;3.73;1.00;;;14.20;99.30;;;;;;4937835;29;20208;-70
2022/04/09 07:11:33;;;;;;;3.80;1.00;;;13.90;99.20;;;;;;4953716;29;20712;-67
2022/04/09 07:13:59;;;;;;;3.07;0.90;;;13.50;99.90;;;;;;4955963;29;20214;-70
2022/04/09 07:16:26;;;;;;;4.37;1.17;;;13.60;99.90;;;;;;4956800;29;20219;-70
2022/04/09 07:18:53;;;;;;;3.70;0.97;;;13.90;99.50;;;;;;4956403;29;20724;-66
2022/04/09 07:21:21;;;;;;;6.57;0.80;;;14.10;98.60;;;;;;4956727;29;20283;-70
2022/04/09 07:23:49;;;;;;;4.13;0.70;;;13.90;99.10;;;;;;4956557;29;20744;-70
2022/04/09 07:26:18;;;;;;;3.07;0.90;;;14.60;98.90;;;;;;4956572;29;20208;-67
2022/04/09 07:28:44;;;;;;;3.57;0.80;;;14.80;98.60;;;;;;4956532;29;20208;-71
2022/04/09 07:31:11;;;;;;;3.90;1.03;;;14.20;98.60;;;;;;4955253;29;20246;-71
2022/04/09 07:33:38;;;;;;;6.43;1.23;;;14.10;98.70;;;;;;4955328;28;20208;-67
2022/04/09 07:36:06;;;;;;;3.33;0.80;;;14.30;98.50;;;;;;4953664;29;20255;-70
2022/04/09 07:38:33;;;;;;;3.00;1.00;;;13.80;98.70;;;;;;4955550;29;20241;-69
2022/04/09 07:41:01;;;;;;;5.07;1.13;;;14.20;97.90;;;;;;4956303;29;20232;-67
2022/04/09 07:43:29;;;;;;;2.47;1.10;;;14.40;98.10;;;;;;4956810;29;20212;-71
2022/04/09 07:45:56;;;;;;;4.87;1.10;;;14.70;97.90;;;;;;4956382;28;20577;-71
2022/04/09 07:48:23;;;;;;;3.57;1.00;;;14.70;98.20;;;;;;4955535;29;20215;-70
2022/04/09 07:50:50;;;;;;;5.53;1.40;;;14.60;97.90;;;;;;4955499;29;20275;-71
2022/04/09 07:53:17;;;;;;;5.70;1.13;;;14.10;98.30;;;;;;4956007;29;20215;-68
2022/04/09 07:55:43;;;;;;;3.27;0.90;;;14.00;98.90;;;;;;4956076;29;20204;-70
2022/04/09 07:58:14;;;;;;;4.47;0.93;;;14.00;98.90;;;;;;4956132;29;20254;-68
2022/04/09 08:00:41;;;;;;;2.80;0.80;;;14.30;98.60;;;;;;4956045;29;20204;-67
2022/04/09 08:03:09;;;;;;;5.20;1.00;;;14.60;98.80;;;;;;4956054;29;20244;-67
2022/04/09 08:05:35;;;;;;;2.73;1.00;;;14.70;97.90;;;;;;4955027;29;20216;-68
2022/04/09 08:08:03;;;;;;;3.87;0.97;;;15.00;98.10;;;;;;4955616;29;20219;-66
2022/04/09 08:10:30;;;;;;;3.67;0.90;;;15.60;97.20;;;;;;4955784;29;20216;-71
2022/04/09 08:12:58;;;;;;;3.97;0.90;;;15.50;97.20;;;;;;4955788;29;20212;-67
2022/04/09 08:15:26;;;;;;;3.07;1.00;;;16.00;97.20;;;;;;4954543;29;20673;-71
2022/04/09 08:17:56;;;;;;;4.67;1.20;;;16.00;96.50;;;;;;4954861;29;20231;-70
2022/04/09 08:20:23;;;;;;;3.67;1.00;;;16.10;96.10;;;;;;4954498;28;20200;-71
2022/04/09 08:22:51;;;;;;;4.63;1.20;;;15.80;96.20;;;;;;4954614;28;20230;-67
2022/04/09 08:25:18;;;;;;;3.43;0.90;;;15.60;96.00;;;;;;4954855;28;20215;-71
2022/04/09 08:27:47;;;;;;;3.47;1.00;;;15.60;95.60;;;;;;4955586;28;20208;-67
2022/04/09 08:30:14;;;;;;;5.00;1.30;;;15.50;95.70;;;;;;4954361;29;20215;-71
2022/04/09 08:32:42;;;;;;;1.77;0.60;;;15.70;95.60;;;;;;4954211;29;20708;-67
2022/04/09 08:35:09;;;;;;;3.43;1.37;;;16.10;95.00;;;;;;4969551;28;20210;-69
2022/04/09 08:37:36;;;;;;;5.67;1.00;;;16.20;95.00;;;;;;4954523;28;20570;-67
2022/04/09 08:40:04;;;;;;;4.97;1.03;;;16.10;95.50;;;;;;4954691;28;20262;-70
2022/04/09 08:42:32;;;;;;;4.63;1.00;;;16.20;95.30;;;;;;4953826;29;20705;-70
2022/04/09 08:45:01;;;;;;;2.20;0.80;;;16.40;95.00;;;;;;4954591;28;20848;-67
2022/04/09 08:47:28;;;;;;;3.10;0.93;;;16.00;95.40;;;;;;4953970;28;20244;-71
2022/04/09 08:49:57;;;;;;;3.87;0.90;;;15.70;94.90;;;;;;4954381;28;20200;-70
2022/04/09 08:52:25;;;;;;;7.73;0.87;;;15.10;95.60;;;;;;4954715;29;20231;-67
2022/04/09 08:54:52;;;;;;;3.17;0.60;;;14.80;96.60;;;;;;4954876;28;20601;-71
2022/04/09 08:57:19;;;;;;;2.40;0.90;;;14.20;96.00;;;;;;4954738;29;20208;-67
2022/04/09 08:59:46;;;;;;;4.90;1.47;;;13.30;96.80;;;;;;4954272;29;20215;-71
2022/04/09 09:02:13;;;;;;;5.43;1.53;;;13.10;97.20;;;;;;4954408;28;20231;-71
2022/04/09 09:04:40;;;;;;;2.20;0.47;;;13.10;96.70;;;;;;4954345;29;20208;-69
2022/04/09 09:07:23;;;;;;;1.43;0.70;;;13.60;96.00;;;;;;4954522;28;20291;-72
2022/04/09 09:09:51;;;;;;;2.83;0.67;;;14.00;95.30;;;;;;4940145;29;20251;-70
2022/04/09 09:12:28;;;;;;;3.50;1.20;;;14.30;95.50;;;;;;4954446;28;20222;-67
2022/04/09 09:14:55;;;;;;;2.10;0.50;;;14.20;95.70;;;;;;4954478;28;20204;-67
2022/04/09 09:17:28;;;;;;;5.40;0.90;;;13.90;95.90;;;;;;4953881;29;20297;-67
2022/04/09 09:19:55;;;;;;;3.23;0.70;;;14.20;95.30;;;;;;4953402;29;20703;-67
2022/04/09 09:22:36;;;;;;;2.93;0.70;;;14.60;95.50;;;;;;4954328;29;20228;-67
2022/04/09 09:25:04;;;;;;;1.60;0.77;;;15.00;95.00;;;;;;4954655;29;20210;-70
2022/04/09 09:27:31;;;;;;;3.23;0.97;;;15.20;94.40;;;;;;4953903;29;20216;-67
2022/04/09 09:29:58;;;;;;;3.30;0.90;;;14.70;94.70;;;;;;4953888;29;20208;-67
2022/04/09 09:32:26;;;;;;;3.87;0.77;;;14.40;94.60;;;;;;4954397;29;20228;-68
2022/04/09 09:34:55;;;;;;;2.70;0.60;;;14.70;95.40;;;;;;4954571;29;20207;-69
2022/04/09 09:37:24;;;;;;;4.63;0.70;;;14.60;95.70;;;;;;4954541;29;20223;-68
2022/04/09 09:39:51;;;;;;;2.27;0.60;;;14.20;94.70;;;;;;4954283;29;20755;-67
2022/04/09 09:42:19;;;;;;;2.70;1.03;;;13.30;94.80;;;;;;4954236;29;20593;-71
2022/04/09 09:44:46;;;;;;;3.77;0.80;;;13.20;95.60;;;;;;4954705;29;20251;-67
2022/04/09 09:47:14;;;;;;;3.20;0.70;;;13.50;95.60;;;;;;4953925;29;20211;-68
2022/04/09 09:49:53;;;;;;;2.57;0.67;;;13.30;95.00;;;;;;4954683;29;20254;-67
2022/04/09 09:52:26;;;;;;;4.90;1.53;;;13.00;95.00;;;;;;4954150;29;20224;-70
2022/04/09 09:54:57;;;;;;;1.30;0.90;;;12.70;95.40;;;;;;4954695;29;20211;-71
2022/04/09 09:57:27;;;;;;;2.13;1.33;;;12.70;96.50;;;;;;4956686;28;20235;-68
2022/04/09 09:59:56;;;;;;;6.03;1.20;;;12.80;96.00;;;;;;4958121;28;20239;-68
2022/04/09 10:02:24;;;;;;;3.17;0.70;;;12.90;95.80;;;;;;4958172;28;20550;-67
2022/04/09 10:04:51;;;;;;;2.93;0.90;;;13.10;95.10;;;;;;4957185;28;20210;-67
2022/04/09 10:07:18;;;;;;;3.13;0.97;;;12.90;95.30;;;;;;4958101;29;20218;-68
2022/04/09 10:09:48;;;;;;;1.93;0.80;;;12.80;95.70;;;;;;4957722;29;20219;-67
2022/04/09 10:12:18;;;;;;;4.03;0.80;;;12.90;95.70;;;;;;4957835;29;20298;-70
2022/04/09 10:14:47;;;;;;;1.50;0.70;;;12.60;95.10;;;;;;4957925;29;20255;-67
2022/04/09 10:17:17;;;;;;;1.17;0.80;;;12.20;95.50;;;;;;4957981;29;20214;-67
2022/04/09 10:19:49;;;;;;;2.17;0.80;;;12.30;95.90;;;;;;4956911;29;20719;-67
2022/04/09 10:22:18;;;;;;;4.07;1.00;;;12.80;95.50;;;;;;4957907;29;20228;-68
2022/04/09 10:24:47;;;;;;;1.93;0.63;;;13.40;96.40;;;;;;4957771;29;20218;-71
2022/04/09 10:27:37;;;;;;;2.57;0.80;;;13.70;95.80;;;;;;4957357;29;20569;-67
2022/04/09 10:30:17;;;;;;;3.67;0.67;;;13.70;94.00;;;;;;4956566;28;20331;-71
2022/04/09 10:32:46;;;;;;;2.33;1.07;;;13.20;94.20;;;;;;4957048;29;20235;-67
2022/04/09 10:35:30;;;;;;;2.73;0.90;;;12.70;95.50;;;;;;4957306;29;20279;-68
2022/04/09 10:38:17;;;;;;;1.70;0.70;;;12.40;95.30;;;;;;4957229;29;20550;-69
2022/04/09 10:41:31;;;;;;;1.70;0.57;;;11.90;96.30;;;;;;4957670;29;20208;-68
2022/04/09 10:43:59;;;;;;;1.43;0.70;;;11.10;99.90;;;;;;4897825;29;20214;-71
2022/04/09 10:46:35;;;;;;;2.47;0.80;;;10.60;99.90;;;;;;4897583;29;20221;-69
2022/04/09 10:49:22;;;;;;;2.10;0.80;;;10.20;99.90;;;;;;4932071;29;20215;-71
2022/04/09 10:52:06;;;;;;;3.00;1.43;;;10.10;99.90;;;;;;4956477;29;20263;-70
2022/04/09 10:54:33;;;;;;;5.20;1.10;;;10.10;99.90;;;;;;4957384;29;20259;-71
2022/04/09 10:57:21;;;;;;;1.70;0.70;;;9.90;99.90;;;;;;4957166;29;20211;-69
2022/04/09 10:59:56;;;;;;;1.57;0.60;;;9.80;99.90;;;;;;4956679;29;20633;-66
2022/04/09 11:02:24;;;;;;;1.47;0.80;;;10.00;99.90;;;;;;4955978;29;20227;-70
2022/04/09 11:04:51;;;;;;;1.30;0.80;;;10.30;99.90;;;;;;4947165;29;20217;-67
2022/04/09 11:07:20;;;;;;;1.80;0.90;;;10.70;99.90;;;;;;4944390;28;20219;-66
2022/04/09 11:09:57;;;;;;;2.73;0.90;;;11.00;99.90;;;;;;4945363;29;20212;-70
2022/04/09 11:12:28;;;;;;;1.57;0.73;;;11.10;99.90;;;;;;4944552;29;20222;-70
2022/04/09 11:14:56;;;;;;;5.77;1.30;;;11.30;99.90;;;;;;4945178;29;20211;-70
2022/04/09 11:17:31;;;;;;;3.37;0.90;;;11.50;99.90;;;;;;4943882;29;20209;-69
2022/04/09 11:20:02;;;;;;;0.93;0.73;;;11.80;99.30;;;;;;4944883;28;20219;-70
2022/04/09 11:22:34;;;;;;;3.40;0.97;;;12.20;99.60;;;;;;4946565;29;20714;-70
2022/04/09 11:25:01;;;;;;;2.07;0.63;;;12.30;99.40;;;;;;4944566;29;20204;-70
2022/04/09 11:27:30;;;;;;;3.87;1.00;;;11.90;99.30;;;;;;4948056;29;20211;-71
2022/04/09 11:29:57;;;;;;;0.80;0.53;;;11.40;98.80;;;;;;4945463;29;20211;-70
2022/04/09 11:32:25;;;;;;;1.83;0.70;;;11.10;99.50;;;;;;4944415;29;20933;-71
2022/04/09 11:34:57;;;;;;;1.93;0.70;;;10.60;99.70;;;;;;4942723;29;20208;-70
2022/04/09 11:37:26;;;;;;;1.77;0.70;;;10.70;99.90;;;;;;4945980;29;20211;-69
2022/04/09 11:39:53;;;;;;;1.90;0.60;;;10.60;99.90;;;;;;4944296;29;20641;-68
2022/04/09 11:42:20;;;;;;;2.43;0.80;;;10.80;99.90;;;;;;4943488;29;20236;-68
2022/04/09 11:44:49;;;;;;;1.60;0.60;;;11.10;99.90;;;;;;4944713;29;20204;-71
2022/04/09 11:47:17;;;;;;;2.00;0.70;;;11.40;99.30;;;;;;4945024;29;20208;-69
2022/04/09 11:49:45;;;;;;;2.40;0.60;;;11.60;98.10;;;;;;4943092;29;20229;-71
2022/04/09 11:52:12;;;;;;;1.33;0.47;;;11.50;97.00;;;;;;4941624;29;20224;-73
2022/04/09 11:54:43;;;;;;;1.53;0.40;;;11.00;97.10;;;;;;4944914;29;20235;-77
2022/04/09 11:57:14;;;;;;;1.00;0.47;;;10.70;97.80;;;;;;4945458;29;20219;-76
2022/04/09 11:59:42;;;;;;;0.97;0.40;;;10.50;97.70;;;;;;4944370;29;20224;-73
2022/04/09 12:02:24;;;;;;;1.20;0.53;;;10.60;97.20;;;;;;4944098;29;20688;-73
2022/04/09 12:04:51;;;;;;;1.07;0.60;;;11.00;97.00;;;;;;4943704;29;20200;-72
2022/04/09 12:07:19;;;;;;;1.37;0.80;;;11.30;97.50;;;;;;4942157;29;20204;-68
2022/04/09 12:09:46;;;;;;;1.27;0.70;;;11.60;97.40;;;;;;4941554;29;20208;-66
2022/04/09 12:12:13;;;;;;;3.03;1.20;;;11.90;95.40;;;;;;4945886;28;20228;-67
2022/04/09 12:14:41;;;;;;;2.37;0.80;;;12.30;97.00;;;;;;4942181;29;20215;-71
2022/04/09 12:17:16;;;;;;;1.10;0.70;;;12.70;95.00;;;;;;4943170;29;20204;-69
2022/04/09 12:19:44;;;;;;;0.90;0.70;;;13.00;94.90;;;;;;4942012;29;20236;-74
2022/04/09 12:22:17;;;;;;;0.57;0.33;;;13.20;95.40;;;;;;4946161;29;20235;-67
2022/04/09 12:24:48;;;;;;;0.90;0.60;;;13.00;95.50;;;;;;4943072;29;20208;-76
2022/04/09 12:27:15;;;;;;;3.30;0.80;;;12.70;93.80;;;;;;4943074;29;20213;-74
2022/04/09 12:29:55;;;;;;;2.67;0.70;;;12.70;91.70;;;;;;4945114;29;20234;-67
2022/04/09 12:32:25;;;;;;;1.20;0.87;;;12.60;91.40;;;;;;4945126;29;20227;-78
2022/04/09 12:34:54;;;;;;;1.60;0.50;;;12.30;91.10;;;;;;4944638;29;20292;-78
2022/04/09 12:37:21;;;;;;;1.73;0.50;;;12.00;91.70;;;;;;4946435;29;20204;-80
2022/04/09 12:39:48;;;;;;;1.10;0.40;;;11.70;92.00;;;;;;4944097;29;20228;-78
2022/04/09 12:42:15;;;;;;;0.57;0.40;;;11.70;92.30;;;;;;4942862;28;20229;-71
2022/04/09 12:44:43;;;;;;;0.43;0.30;;;11.80;91.80;;;;;;4944969;29;20926;-71
2022/04/09 12:47:10;;;;;;;0.60;0.23;;;12.10;91.50;;;;;;4944686;29;20738;-72
2022/04/09 12:49:38;;;;;;;0.70;0.20;;;12.20;92.10;;;;;;4940478;29;20219;-66
2022/04/09 12:52:10;;;;;;;0.47;0.40;;;12.40;91.40;;;;;;4936911;29;20224;-72
2022/04/09 12:54:37;;;;;;;0.40;0.33;;;12.30;90.50;;;;;;4953328;28;20263;-72
2022/04/09 12:57:08;;;;;;;0.80;0.40;;;12.10;89.10;;;;;;4954932;29;20208;-72
2022/04/09 12:59:35;;;;;;;2.27;0.40;;;11.90;91.30;;;;;;4954992;28;20228;-66
2022/04/09 13:02:04;;;;;;;1.37;0.30;;;11.70;91.40;;;;;;4954698;29;20318;-71